createdAt,value
2022-09-23T00:01:07.851Z,101677.03
2022-09-23T00:03:38.224Z,101677.16
2022-09-23T00:06:08.384Z,101674.06
2022-09-23T00:08:38.629Z,101674.31
2022-09-23T00:11:07.797Z,101675.88
2022-09-23T00:13:41.773Z,101680.25
2022-09-23T00:16:12.863Z,101679.78
2022-09-23T00:18:42.875Z,101675.75
2022-09-23T00:21:12.757Z,101671.34
2022-09-23T00:23:43.931Z,101675.31
2022-09-23T00:26:15.812Z,101672.06
2022-09-23T00:28:44.918Z,101672.06
2022-09-23T00:31:15.359Z,101665.25
2022-09-23T00:33:43.936Z,101667.25
2022-09-23T00:36:15.757Z,101664.84
2022-09-23T00:38:46.302Z,101672.81
2022-09-23T00:41:16.156Z,101669.28
2022-09-23T00:43:46.870Z,101668.19
2022-09-23T00:46:19.735Z,101656.97
2022-09-23T00:48:49.640Z,101658.25
2022-09-23T00:51:22.227Z,101662.09
2022-09-23T00:53:53.331Z,101655.19
2022-09-23T00:56:24.010Z,101661.75
2022-09-23T00:58:52.383Z,101655.34
2022-09-23T01:01:21.692Z,101651.09
2022-09-23T01:03:51.239Z,101651.09
2022-09-23T01:06:21.850Z,101652.03
2022-09-23T01:08:51.964Z,101650.34
2022-09-23T01:11:38.656Z,101650.84
2022-09-23T01:14:37.489Z,101648.34
2022-09-23T01:17:10.604Z,101646.66
2022-09-23T01:19:59.778Z,101642.97
2022-09-23T01:22:36.723Z,101642.00
2022-09-23T01:25:26.509Z,101641.97
2022-09-23T01:28:23.841Z,101636.59
2022-09-23T01:30:58.250Z,101633.06
2022-09-23T01:33:36.358Z,101627.84
2022-09-23T01:36:11.941Z,101634.16
2022-09-23T01:38:46.113Z,101628.22
2022-09-23T01:41:25.486Z,101623.91
2022-09-23T01:44:01.317Z,101628.31
2022-09-23T01:46:36.530Z,101629.97
2022-09-23T01:49:10.045Z,101622.66
2022-09-23T01:51:41.839Z,101624.31
2022-09-23T01:54:16.453Z,101622.84
2022-09-23T01:56:52.440Z,101624.75
2022-09-23T01:59:26.440Z,101620.22
2022-09-23T02:02:01.033Z,101621.38
2022-09-23T02:04:36.666Z,101626.75
2022-09-23T02:07:11.360Z,101627.19
2022-09-23T02:09:45.972Z,101617.34
2022-09-23T02:12:18.753Z,101619.00
2022-09-23T02:14:48.695Z,101614.13
2022-09-23T02:17:25.567Z,101618.81
2022-09-23T02:19:57.684Z,101616.13
2022-09-23T02:22:29.689Z,101614.56
2022-09-23T02:24:59.123Z,101611.09
2022-09-23T02:27:33.156Z,101608.59
2022-09-23T02:30:08.985Z,101604.47
2022-09-23T02:32:46.368Z,101608.66
2022-09-23T02:35:19.533Z,101603.81
2022-09-23T02:37:55.608Z,101598.25
2022-09-23T02:40:29.297Z,101604.47
2022-09-23T02:43:10.397Z,101599.47
2022-09-23T02:45:39.189Z,101600.88
2022-09-23T02:48:14.759Z,101601.13
2022-09-23T02:50:43.094Z,101588.75
2022-09-23T02:53:11.985Z,101586.25
2022-09-23T02:55:41.496Z,101584.63
2022-09-23T02:58:14.055Z,101580.38
2022-09-23T03:00:52.328Z,101576.97
2022-09-23T03:03:37.640Z,101582.66
2022-09-23T03:06:16.727Z,101577.53
2022-09-23T03:08:53.451Z,101583.41
2022-09-23T03:11:22.249Z,101578.47
2022-09-23T03:14:05.136Z,101568.81
2022-09-23T03:16:39.802Z,101566.34
2022-09-23T03:19:21.485Z,101561.03
2022-09-23T03:21:57.943Z,101562.09
2022-09-23T03:24:27.296Z,101559.88
2022-09-23T03:26:58.987Z,101561.59
2022-09-23T03:29:28.920Z,101558.91
2022-09-23T03:31:58.303Z,101552.16
2022-09-23T03:34:30.781Z,101553.66
2022-09-23T03:37:05.131Z,101560.03
2022-09-23T03:39:40.269Z,101554.78
2022-09-23T03:42:16.930Z,101557.56
2022-09-23T03:44:47.098Z,101553.88
2022-09-23T03:47:16.778Z,101546.84
2022-09-23T03:49:49.306Z,101546.00
2022-09-23T03:52:17.938Z,101535.38
2022-09-23T03:54:46.412Z,101540.25
2022-09-23T03:57:15.280Z,101540.25
2022-09-23T03:59:43.703Z,101538.09
2022-09-23T04:02:11.980Z,101534.09
2022-09-23T04:04:41.397Z,101537.94
2022-09-23T04:07:11.989Z,101533.69
2022-09-23T04:09:40.399Z,101536.63
2022-09-23T04:12:09.005Z,101527.28
2022-09-23T04:14:37.305Z,101533.50
2022-09-23T04:17:05.576Z,101531.53
2022-09-23T04:19:33.673Z,101536.84
2022-09-23T04:22:02.135Z,101531.97
2022-09-23T04:24:31.898Z,101539.22
2022-09-23T04:27:00.228Z,101531.28
2022-09-23T04:29:28.678Z,101532.66
2022-09-23T04:31:57.834Z,101536.41
2022-09-23T04:34:25.936Z,101525.94
2022-09-23T04:36:53.956Z,101524.38
2022-09-23T04:39:22.001Z,101526.44
2022-09-23T04:41:51.514Z,101530.72
2022-09-23T04:44:21.151Z,101523.25
2022-09-23T04:46:49.398Z,101524.09
2022-09-23T04:49:18.489Z,101528.84
2022-09-23T04:51:47.667Z,101534.25
2022-09-23T04:54:15.990Z,101527.22
2022-09-23T04:56:44.274Z,101529.97
2022-09-23T04:59:13.697Z,101526.22
2022-09-23T05:01:42.309Z,101525.56
2022-09-23T05:04:14.064Z,101520.34
2022-09-23T05:06:44.086Z,101516.66
2022-09-23T05:09:17.602Z,101523.09
2022-09-23T05:11:45.860Z,101527.72
2022-09-23T05:14:15.421Z,101529.97
2022-09-23T05:16:43.779Z,101522.09
2022-09-23T05:19:13.640Z,101520.56
2022-09-23T05:21:42.161Z,101528.44
2022-09-23T05:24:10.879Z,101523.50
2022-09-23T05:26:39.386Z,101520.88
2022-09-23T05:29:07.889Z,101512.06
2022-09-23T05:31:37.879Z,101515.66
2022-09-23T05:34:06.997Z,101526.88
2022-09-23T05:36:38.609Z,101529.91
2022-09-23T05:39:08.853Z,101521.22
2022-09-23T05:41:37.132Z,101528.19
2022-09-23T05:44:05.715Z,101525.91
2022-09-23T05:46:34.204Z,101537.09
2022-09-23T05:49:04.464Z,101530.63
2022-09-23T05:51:34.384Z,101539.19
2022-09-23T05:54:04.353Z,101527.28
2022-09-23T05:56:34.108Z,101537.75
2022-09-23T05:59:03.707Z,101537.56
2022-09-23T06:01:34.207Z,101534.00
2022-09-23T06:04:06.091Z,101533.88
2022-09-23T06:06:35.989Z,101525.63
2022-09-23T06:09:05.116Z,101530.38
2022-09-23T06:11:34.427Z,101532.09
2022-09-23T06:14:03.314Z,101532.66
2022-09-23T06:16:33.455Z,101533.47
2022-09-23T06:19:06.441Z,101530.84
2022-09-23T06:21:36.719Z,101533.00
2022-09-23T06:24:05.222Z,101523.22
2022-09-23T06:26:35.154Z,101523.94
2022-09-23T06:29:04.636Z,101522.88
2022-09-23T06:31:33.046Z,101531.22
2022-09-23T06:34:10.760Z,101525.72
2022-09-23T06:36:44.939Z,101526.81
2022-09-23T06:39:14.933Z,101522.81
2022-09-23T06:41:43.360Z,101530.78
2022-09-23T06:44:11.490Z,101532.50
2022-09-23T06:46:39.583Z,101531.41
2022-09-23T06:49:08.156Z,101524.91
2022-09-23T06:51:36.325Z,101519.16
2022-09-23T06:54:06.011Z,101518.59
2022-09-23T06:56:38.797Z,101521.38
2022-09-23T06:59:08.417Z,101524.53
2022-09-23T07:01:36.481Z,101522.63
2022-09-23T07:04:05.106Z,101523.25
2022-09-23T07:06:33.254Z,101522.28
2022-09-23T07:09:01.853Z,101530.03
2022-09-23T07:11:31.446Z,101528.78
2022-09-23T07:14:01.904Z,101528.00
2022-09-23T07:16:30.174Z,101534.59
2022-09-23T07:18:58.377Z,101528.69
2022-09-23T07:21:28.030Z,101527.59
2022-09-23T07:23:58.128Z,101534.31
2022-09-23T07:26:27.194Z,101527.13
2022-09-23T07:29:04.706Z,101526.03
2022-09-23T07:31:39.147Z,101518.91
2022-09-23T07:34:08.271Z,101521.31
2022-09-23T07:36:37.510Z,101517.59
2022-09-23T07:39:05.789Z,101522.53
2022-09-23T07:41:35.096Z,101528.22
2022-09-23T07:44:06.363Z,101526.31
2022-09-23T07:46:37.280Z,101520.03
2022-09-23T07:49:08.107Z,101525.81
2022-09-23T07:51:38.273Z,101522.81
2022-09-23T07:54:08.797Z,101525.28
2022-09-23T07:56:37.942Z,101522.31
2022-09-23T07:59:09.341Z,101523.34
2022-09-23T08:01:39.903Z,101525.72
2022-09-23T08:04:10.375Z,101521.88
2022-09-23T08:06:42.632Z,101524.78
2022-09-23T08:09:11.446Z,101521.56
2022-09-23T08:11:42.085Z,101519.41
2022-09-23T08:14:13.645Z,101522.19
2022-09-23T08:16:42.080Z,101526.94
2022-09-23T08:19:10.531Z,101519.53
2022-09-23T08:21:39.469Z,101527.19
2022-09-23T08:24:08.146Z,101533.66
2022-09-23T08:26:36.567Z,101534.72
2022-09-23T08:29:04.801Z,101525.84
2022-09-23T08:31:34.259Z,101528.66
2022-09-23T08:34:02.611Z,101530.94
2022-09-23T08:36:30.733Z,101523.66
2022-09-23T08:38:58.815Z,101523.56
2022-09-23T08:41:37.196Z,101526.25
2022-09-23T08:44:13.831Z,101528.88
2022-09-23T08:46:47.631Z,101524.50
2022-09-23T08:49:24.968Z,101523.91
2022-09-23T08:51:55.912Z,101525.00
2022-09-23T08:54:26.877Z,101519.75
2022-09-23T08:56:58.886Z,101527.00
2022-09-23T08:59:31.788Z,101526.47
2022-09-23T09:02:06.618Z,101525.25
2022-09-23T09:04:44.431Z,101522.59
2022-09-23T09:07:36.590Z,101520.59
2022-09-23T09:10:11.824Z,101524.75
2022-09-23T09:12:44.630Z,101524.94
2022-09-23T09:15:15.154Z,101525.44
2022-09-23T09:17:55.836Z,101522.25
2022-09-23T09:20:26.366Z,101525.41
2022-09-23T09:22:57.866Z,101517.44
2022-09-23T09:25:41.183Z,101519.38
2022-09-23T09:28:15.726Z,101514.63
2022-09-23T09:30:48.521Z,101506.31
2022-09-23T09:33:22.317Z,101508.44
2022-09-23T09:36:08.957Z,101508.63
2022-09-23T09:38:37.485Z,101500.09
2022-09-23T09:41:13.800Z,101501.81
2022-09-23T09:43:44.298Z,101495.78
2022-09-23T09:46:24.502Z,101485.19
2022-09-23T09:48:59.825Z,101482.66
2022-09-23T09:51:30.138Z,101485.31
2022-09-23T09:54:18.131Z,101486.16
2022-09-23T09:59:23.453Z,101481.44
2022-09-23T10:02:14.061Z,101478.75
2022-09-23T10:04:44.342Z,101474.28
2022-09-23T10:07:15.688Z,101469.84
2022-09-23T10:09:51.101Z,101467.03
2022-09-23T10:12:21.493Z,101471.72
2022-09-23T10:14:51.892Z,101470.13
2022-09-23T10:17:23.062Z,101472.66
2022-09-23T10:20:00.832Z,101477.00
2022-09-23T10:22:34.896Z,101479.31
2022-09-23T10:25:08.836Z,101481.91
2022-09-23T10:27:38.860Z,101477.66
2022-09-23T10:30:22.352Z,101474.03
2022-09-23T10:32:51.142Z,101474.28
2022-09-23T10:35:22.687Z,101479.03
2022-09-23T10:37:52.848Z,101481.41
2022-09-23T10:40:45.971Z,101474.06
2022-09-23T10:43:42.504Z,101471.47
2022-09-23T10:46:36.117Z,101468.38
2022-09-23T10:49:33.566Z,101466.91
2022-09-23T10:52:36.137Z,101466.16
2022-09-23T10:55:15.617Z,101471.78
2022-09-23T10:58:04.328Z,101464.50
2022-09-23T11:00:41.194Z,101463.91
2022-09-23T11:03:40.382Z,101460.03
2022-09-23T11:06:20.114Z,101463.81
2022-09-23T11:09:00.181Z,101459.97
2022-09-23T11:11:39.720Z,101459.16
2022-09-23T11:14:40.921Z,101456.38
2022-09-23T11:17:34.560Z,101455.97
2022-09-23T11:20:32.726Z,101455.00
2022-09-23T11:23:24.456Z,101452.50
2022-09-23T11:26:07.396Z,101457.25
2022-09-23T11:28:55.495Z,101447.69
2022-09-23T11:31:36.477Z,101448.56
2022-09-23T11:34:23.069Z,101440.97
2022-09-23T11:36:57.993Z,101449.25
2022-09-23T11:39:32.229Z,101447.69
2022-09-23T11:42:03.664Z,101440.69
2022-09-23T11:44:36.758Z,101445.03
2022-09-23T11:47:10.008Z,101439.84
2022-09-23T11:49:43.447Z,101439.84
2022-09-23T11:52:19.593Z,101435.13
2022-09-23T11:54:54.272Z,101430.06
2022-09-23T11:57:32.798Z,101426.09
2022-09-23T12:00:07.957Z,101428.50
2022-09-23T12:03:04.796Z,101423.88
2022-09-23T12:05:37.244Z,101418.13
2022-09-23T12:08:17.944Z,101409.72
2022-09-23T12:10:54.964Z,101414.91
2022-09-23T12:13:34.969Z,101413.63
2022-09-23T12:16:32.357Z,101406.91
2022-09-23T12:19:14.928Z,101417.59
2022-09-23T12:22:01.341Z,101405.41
2022-09-23T12:24:55.739Z,101409.34
2022-09-23T12:27:32.288Z,101400.75
2022-09-23T12:30:04.581Z,101401.31
2022-09-23T12:32:33.453Z,101406.19
2022-09-23T12:35:02.842Z,101407.88
2022-09-23T12:37:35.625Z,101402.78
2022-09-23T12:40:07.837Z,101405.53
2022-09-23T12:42:43.713Z,101400.50
2022-09-23T12:45:38.994Z,101393.28
2022-09-23T12:48:39.919Z,101384.66
2022-09-23T12:51:17.596Z,101381.69
2022-09-23T12:54:15.333Z,101380.09
2022-09-23T12:57:10.374Z,101374.91
2022-09-23T12:59:59.239Z,101380.41
2022-09-23T13:02:33.299Z,101367.75
2022-09-23T13:05:32.175Z,101369.44
2022-09-23T13:08:04.144Z,101369.53
2022-09-23T13:10:35.029Z,101359.72
2022-09-23T13:13:04.012Z,101363.66
2022-09-23T13:15:34.604Z,101355.41
2022-09-23T13:18:39.138Z,101354.38
2022-09-23T13:21:17.989Z,101354.28
2022-09-23T13:24:18.070Z,101355.09
2022-09-23T13:26:47.918Z,101353.34
2022-09-23T13:29:21.244Z,101349.16
2022-09-23T13:31:49.804Z,101350.75
2022-09-23T13:34:24.119Z,101343.81
2022-09-23T13:36:53.647Z,101344.81
2022-09-23T13:39:24.629Z,101340.06
2022-09-23T13:41:56.722Z,101341.50
2022-09-23T13:44:25.000Z,101341.50
2022-09-23T13:46:56.430Z,101345.81
2022-09-23T13:49:29.325Z,101350.06
2022-09-23T13:51:58.473Z,101340.88
2022-09-23T13:54:32.245Z,101337.50
2022-09-23T13:57:01.457Z,101339.66
2022-09-23T13:59:31.712Z,101335.44
2022-09-23T14:02:08.277Z,101339.88
2022-09-23T14:04:38.017Z,101335.09
2022-09-23T14:07:08.754Z,101333.13
2022-09-23T14:09:39.202Z,101330.81
2022-09-23T14:12:10.166Z,101328.00
2022-09-23T14:14:40.834Z,101328.94
2022-09-23T14:17:10.232Z,101332.38
2022-09-23T14:19:39.828Z,101327.19
2022-09-23T14:22:23.442Z,101320.63
2022-09-23T14:24:52.464Z,101320.69
2022-09-23T14:27:28.500Z,101320.31
2022-09-23T14:29:57.269Z,101321.19
2022-09-23T14:32:29.154Z,101312.56
2022-09-23T14:35:17.716Z,101312.28
2022-09-23T14:38:04.398Z,101312.16
2022-09-23T14:40:34.310Z,101300.91
2022-09-23T14:43:06.329Z,101298.72
2022-09-23T14:45:38.262Z,101301.25
2022-09-23T14:48:11.928Z,101296.47
2022-09-23T14:50:48.577Z,101296.22
2022-09-23T14:53:40.330Z,101289.34
2022-09-23T14:56:17.704Z,101295.72
2022-09-23T14:58:52.381Z,101296.81
2022-09-23T15:01:39.740Z,101290.78
2022-09-23T15:04:14.062Z,101283.34
2022-09-23T15:06:47.747Z,101290.22
2022-09-23T15:09:23.654Z,101279.59
2022-09-23T15:11:59.158Z,101285.03
2022-09-23T15:14:39.389Z,101279.59
2022-09-23T15:17:17.931Z,101287.28
2022-09-23T15:19:52.580Z,101283.03
2022-09-23T15:22:22.420Z,101283.19
2022-09-23T15:24:52.792Z,101275.38
2022-09-23T15:27:41.695Z,101275.13
2022-09-23T15:30:16.398Z,101270.94
2022-09-23T15:32:45.378Z,101278.38
2022-09-23T15:35:15.856Z,101279.34
2022-09-23T15:37:49.595Z,101284.44
2022-09-23T15:40:21.264Z,101280.00
2022-09-23T15:42:51.645Z,101282.69
2022-09-23T15:45:22.474Z,101284.50
2022-09-23T15:47:52.383Z,101281.28
2022-09-23T15:50:21.126Z,101277.94
2022-09-23T15:52:50.540Z,101280.34
2022-09-23T15:55:22.339Z,101277.09
2022-09-23T15:57:50.585Z,101282.28
2022-09-23T16:00:19.008Z,101282.28
2022-09-23T16:02:49.250Z,101273.47
2022-09-23T16:05:30.768Z,101277.53
2022-09-23T16:08:04.918Z,101271.34
2022-09-23T16:10:36.262Z,101269.38
2022-09-23T16:13:07.850Z,101270.94
2022-09-23T16:15:36.008Z,101268.69
2022-09-23T16:18:07.210Z,101265.06
2022-09-23T16:20:37.305Z,101268.13
2022-09-23T16:23:08.851Z,101275.53
2022-09-23T16:25:38.307Z,101277.81
2022-09-23T16:28:06.761Z,101277.22
2022-09-23T16:30:35.735Z,101267.31
2022-09-23T16:33:03.958Z,101270.22
2022-09-23T16:35:34.644Z,101266.44
2022-09-23T16:38:02.732Z,101264.56
2022-09-23T16:40:32.690Z,101263.88
2022-09-23T16:43:02.364Z,101263.44
2022-09-23T16:45:31.310Z,101265.09
2022-09-23T16:47:59.535Z,101262.31
2022-09-23T16:50:29.352Z,101257.53
2022-09-23T16:52:57.777Z,101260.75
2022-09-23T16:55:27.501Z,101260.28
2022-09-23T16:57:57.363Z,101260.53
2022-09-23T17:00:43.089Z,101262.69
2022-09-23T17:03:30.799Z,101271.06
2022-09-23T17:06:00.674Z,101273.28
2022-09-23T17:08:31.090Z,101269.06
2022-09-23T17:11:01.247Z,101276.22
2022-09-23T17:13:32.466Z,101277.81
2022-09-23T17:16:02.745Z,101270.53
2022-09-23T17:18:33.673Z,101277.03
2022-09-23T17:21:03.639Z,101268.34
2022-09-23T17:23:32.660Z,101282.41
2022-09-23T17:26:01.303Z,101272.31
2022-09-23T17:28:30.706Z,101276.44
2022-09-23T17:31:00.697Z,101273.22
2022-09-23T17:33:30.733Z,101273.25
2022-09-23T17:36:00.206Z,101277.59
2022-09-23T17:38:29.567Z,101270.94
2022-09-23T17:41:01.329Z,101266.22
2022-09-23T17:43:31.669Z,101265.69
2022-09-23T17:46:05.390Z,101264.38
2022-09-23T17:48:35.270Z,101263.69
2022-09-23T17:51:05.441Z,101266.47
2022-09-23T17:53:37.399Z,101268.66
2022-09-23T17:56:07.552Z,101270.47
2022-09-23T17:58:38.472Z,101261.56
2022-09-23T18:01:10.634Z,101267.09
2022-09-23T18:03:43.527Z,101265.53
2022-09-23T18:06:13.967Z,101267.78
2022-09-23T18:08:43.670Z,101259.59
2022-09-23T18:11:16.477Z,101266.34
2022-09-23T18:13:47.961Z,101263.97
2022-09-23T18:16:16.077Z,101263.25
2022-09-23T18:18:44.701Z,101265.94
2022-09-23T18:21:12.811Z,101267.47
2022-09-23T18:23:40.868Z,101268.44
2022-09-23T18:26:14.870Z,101262.66
2022-09-23T18:28:43.602Z,101267.97
2022-09-23T18:31:13.525Z,101264.97
2022-09-23T18:33:42.182Z,101269.56
2022-09-23T18:36:10.960Z,101272.28
2022-09-23T18:38:39.906Z,101269.53
2022-09-23T18:41:08.230Z,101263.53
2022-09-23T18:43:40.732Z,101269.03
2022-09-23T18:46:15.685Z,101270.75
2022-09-23T18:49:01.939Z,101266.34
2022-09-23T18:51:32.163Z,101279.16
2022-09-23T18:54:02.306Z,101266.59
2022-09-23T18:56:33.554Z,101275.75
2022-09-23T18:59:02.342Z,101276.94
2022-09-23T19:01:32.033Z,101276.38
2022-09-23T19:04:02.270Z,101269.94
2022-09-23T19:06:32.997Z,101269.00
2022-09-23T19:09:01.197Z,101271.13
2022-09-23T19:11:29.529Z,101271.50
2022-09-23T19:14:00.511Z,101266.91
2022-09-23T19:16:29.391Z,101270.19
2022-09-23T19:18:59.887Z,101270.94
2022-09-23T19:21:29.351Z,101265.41
2022-09-23T19:24:00.375Z,101266.59
2022-09-23T19:26:31.750Z,101269.00
2022-09-23T19:29:01.496Z,101261.28
2022-09-23T19:31:31.532Z,101267.53
2022-09-23T19:34:02.699Z,101268.88
2022-09-23T19:36:32.461Z,101263.44
2022-09-23T19:39:02.804Z,101266.09
2022-09-23T19:41:33.406Z,101273.53
2022-09-23T19:44:03.637Z,101273.13
2022-09-23T19:46:32.501Z,101267.47
2022-09-23T19:49:03.491Z,101268.75
2022-09-23T19:51:33.993Z,101273.22
2022-09-23T19:54:02.762Z,101268.97
2022-09-23T19:56:32.005Z,101273.44
2022-09-23T19:59:03.052Z,101268.53
2022-09-23T20:01:32.515Z,101276.09
2022-09-23T20:04:02.694Z,101268.03
2022-09-23T20:06:31.512Z,101274.91
2022-09-23T20:09:00.921Z,101266.59
2022-09-23T20:11:32.512Z,101265.97
2022-09-23T20:14:04.816Z,101258.78
2022-09-23T20:16:35.269Z,101260.69
2022-09-23T20:19:05.674Z,101253.94
2022-09-23T20:21:34.578Z,101251.22
2022-09-23T20:24:06.484Z,101250.34
2022-09-23T20:26:52.379Z,101254.28
2022-09-23T20:29:20.461Z,101250.59
2022-09-23T20:31:49.022Z,101246.63
2022-09-23T20:34:18.778Z,101246.50
2022-09-23T20:36:46.956Z,101247.94
2022-09-23T20:39:14.978Z,101251.66
2022-09-23T20:41:43.363Z,101244.78
2022-09-23T20:44:14.067Z,101248.19
2022-09-23T20:46:47.768Z,101242.88
2022-09-23T20:49:18.731Z,101239.38
2022-09-23T20:51:48.719Z,101234.94
2022-09-23T20:54:19.014Z,101231.66
2022-09-23T20:56:47.154Z,101225.88
2022-09-23T20:59:17.703Z,101223.09
2022-09-23T21:01:47.706Z,101223.59
2022-09-23T21:04:16.221Z,101226.94
2022-09-23T21:06:45.823Z,101219.25
2022-09-23T21:09:13.893Z,101224.66
2022-09-23T21:11:42.016Z,101220.31
2022-09-23T21:14:10.780Z,101221.38
2022-09-23T21:16:41.562Z,101220.91
2022-09-23T21:19:09.732Z,101223.09
2022-09-23T21:21:37.817Z,101217.53
2022-09-23T21:24:40.080Z,101213.91
2022-09-23T21:26:57.760Z,101214.38
2022-09-23T21:29:28.092Z,101217.13
2022-09-23T21:31:56.146Z,101220.84
2022-09-23T21:34:26.132Z,101216.03
2022-09-23T21:36:54.568Z,101216.34
2022-09-23T21:39:23.970Z,101214.03
2022-09-23T21:41:52.112Z,101216.41
2022-09-23T21:44:20.264Z,101218.09
2022-09-23T21:46:49.618Z,101215.78
2022-09-23T21:49:17.942Z,101212.06
2022-09-23T21:51:46.077Z,101214.19
2022-09-23T21:54:18.055Z,101213.72
2022-09-23T21:56:47.677Z,101209.13
2022-09-23T21:59:15.713Z,101215.38
2022-09-23T22:01:45.114Z,101217.06
2022-09-23T22:04:17.242Z,101216.53
2022-09-23T22:06:46.715Z,101214.03
2022-09-23T22:09:17.013Z,101203.97
2022-09-23T22:12:03.009Z,101203.13
2022-09-23T22:14:32.834Z,101212.00
2022-09-23T22:17:02.731Z,101208.63
2022-09-23T22:19:35.018Z,101207.25
2022-09-23T22:22:07.044Z,101204.59
2022-09-23T22:24:35.163Z,101198.78
2022-09-23T22:27:03.151Z,101212.97
2022-09-23T22:29:49.963Z,101212.31
2022-09-23T22:32:35.273Z,101210.53
2022-09-23T22:35:03.553Z,101206.97
2022-09-23T22:37:34.362Z,101201.66
2022-09-23T22:40:02.938Z,101203.03
2022-09-23T22:42:31.352Z,101196.19
2022-09-23T22:45:05.958Z,101196.19
2022-09-23T22:47:36.885Z,101199.41
2022-09-23T22:50:05.266Z,101199.16
2022-09-23T22:52:33.948Z,101198.94
2022-09-23T22:55:04.640Z,101198.00
2022-09-23T22:57:32.672Z,101199.59
2022-09-23T23:00:00.747Z,101188.81
2022-09-23T23:02:31.503Z,101188.81
2022-09-23T23:05:00.460Z,101194.41
2022-09-23T23:07:28.469Z,101188.72
2022-09-23T23:09:56.497Z,101189.31
2022-09-23T23:12:24.706Z,101187.41
2022-09-23T23:14:52.863Z,101181.91
2022-09-23T23:17:21.823Z,101188.38
2022-09-23T23:19:51.637Z,101191.75
2022-09-23T23:22:20.026Z,101195.34
2022-09-23T23:24:48.079Z,101186.47
2022-09-23T23:27:16.156Z,101194.28
2022-09-23T23:29:44.152Z,101187.19
2022-09-23T23:32:12.151Z,101188.25
2022-09-23T23:34:40.156Z,101192.59
2022-09-23T23:37:09.611Z,101188.72
2022-09-23T23:39:37.697Z,101192.72
2022-09-23T23:42:08.245Z,101180.16
2022-09-23T23:44:36.931Z,101187.13
2022-09-23T23:47:05.083Z,101177.63
2022-09-23T23:49:33.237Z,101187.25
2022-09-23T23:52:01.586Z,101180.16
2022-09-23T23:54:32.226Z,101185.31
2022-09-23T23:57:00.369Z,101184.25
2022-09-23T23:59:28.390Z,101180.50
